createdAt,value
2018-01-27T00:02:19.242Z,9.75
2018-01-27T00:04:46.897Z,9.71
2018-01-27T00:07:14.390Z,9.77
2018-01-27T00:09:41.998Z,9.77
2018-01-27T00:12:09.473Z,9.67
2018-01-27T00:14:37.124Z,9.62
2018-01-27T00:17:04.566Z,9.52
2018-01-27T00:19:32.027Z,9.66
2018-01-27T00:21:59.511Z,9.67
2018-01-27T00:24:27.054Z,9.45
2018-01-27T00:26:54.573Z,9.49
2018-01-27T00:29:22.070Z,9.51
2018-01-27T00:31:49.505Z,9.52
2018-01-27T00:34:17.009Z,9.60
2018-01-27T00:36:44.474Z,9.51
2018-01-27T00:39:11.916Z,9.33
2018-01-27T00:41:39.612Z,9.46
2018-01-27T00:44:07.101Z,9.54
2018-01-27T00:46:38.166Z,9.38
2018-01-27T00:49:05.658Z,9.31
2018-01-27T00:51:34.859Z,9.18
2018-01-27T00:54:02.350Z,9.14
2018-01-27T00:56:29.977Z,9.18
2018-01-27T00:58:57.432Z,9.16
2018-01-27T01:01:25.134Z,9.04
2018-01-27T01:03:52.573Z,8.97
2018-01-27T01:06:20.057Z,9.06
2018-01-27T01:08:47.529Z,9.11
2018-01-27T01:11:15.075Z,9.11
2018-01-27T01:13:42.595Z,9.08
2018-01-27T01:16:10.092Z,8.95
2018-01-27T01:18:37.714Z,8.89
2018-01-27T01:21:05.158Z,8.88
2018-01-27T01:23:32.859Z,8.99
2018-01-27T01:26:01.235Z,9.04
2018-01-27T01:28:28.780Z,8.95
2018-01-27T01:30:56.365Z,8.96
2018-01-27T01:33:23.919Z,9.06
2018-01-27T01:35:51.585Z,8.86
2018-01-27T01:38:19.119Z,9.11
2018-01-27T01:40:46.694Z,9.11
2018-01-27T01:43:19.805Z,9.00
2018-01-27T01:45:47.238Z,8.97
2018-01-27T01:48:14.931Z,8.86
2018-01-27T01:50:42.361Z,8.88
2018-01-27T01:53:09.913Z,8.93
2018-01-27T01:55:37.478Z,8.72
2018-01-27T01:58:05.798Z,8.60
2018-01-27T02:00:33.316Z,8.62
2018-01-27T02:03:01.304Z,8.83
2018-01-27T02:05:29.144Z,8.67
2018-01-27T02:07:56.652Z,8.67
2018-01-27T02:10:24.102Z,8.82
2018-01-27T02:12:51.750Z,8.85
2018-01-27T02:15:19.222Z,8.87
2018-01-27T02:17:46.773Z,8.90
2018-01-27T02:20:14.242Z,8.95
2018-01-27T02:22:41.685Z,9.05
2018-01-27T02:25:09.133Z,9.27
2018-01-27T02:27:36.590Z,9.13
2018-01-27T02:30:04.157Z,9.04
2018-01-27T02:32:32.511Z,9.09
2018-01-27T02:34:59.979Z,9.25
2018-01-27T02:37:27.445Z,9.38
2018-01-27T02:39:54.932Z,9.21
2018-01-27T02:42:22.389Z,9.37
2018-01-27T02:44:49.860Z,9.44
2018-01-27T02:47:17.297Z,9.38
2018-01-27T02:49:44.805Z,9.31
2018-01-27T02:52:12.258Z,9.32
2018-01-27T02:54:39.822Z,9.33
2018-01-27T02:57:07.301Z,9.53
2018-01-27T02:59:34.753Z,9.58
2018-01-27T03:02:02.422Z,9.39
2018-01-27T03:04:30.005Z,9.32
2018-01-27T03:06:57.558Z,9.38
2018-01-27T03:09:25.097Z,9.54
2018-01-27T03:11:52.546Z,9.41
2018-01-27T03:14:20.289Z,9.48
2018-01-27T03:16:48.820Z,9.35
2018-01-27T03:19:17.290Z,9.51
2018-01-27T03:21:44.751Z,9.38
2018-01-27T03:24:12.190Z,9.44
2018-01-27T03:26:39.988Z,9.37
2018-01-27T03:29:07.428Z,9.43
2018-01-27T03:31:34.875Z,9.37
2018-01-27T03:34:02.485Z,9.35
2018-01-27T03:36:30.237Z,9.55
2018-01-27T03:38:57.771Z,9.56
2018-01-27T03:41:25.312Z,9.56
2018-01-27T03:43:52.788Z,9.55
2018-01-27T03:46:21.239Z,9.55
2018-01-27T03:48:48.794Z,9.59
2018-01-27T03:51:16.246Z,9.66
2018-01-27T03:53:45.899Z,9.54
2018-01-27T03:56:13.362Z,9.62
2018-01-27T03:58:40.810Z,9.45
2018-01-27T04:01:08.243Z,9.49
2018-01-27T04:03:35.692Z,9.47
2018-01-27T04:06:03.118Z,9.57
2018-01-27T04:08:30.672Z,9.45
2018-01-27T04:10:58.111Z,9.40
2018-01-27T04:13:25.582Z,9.38
2018-01-27T04:15:53.018Z,9.31
2018-01-27T04:18:21.199Z,9.27
2018-01-27T04:20:48.622Z,9.40
2018-01-27T04:23:16.097Z,9.47
2018-01-27T04:25:43.912Z,9.42
2018-01-27T04:28:11.561Z,9.28
2018-01-27T04:30:39.101Z,9.45
2018-01-27T04:33:06.593Z,9.37
2018-01-27T04:35:34.034Z,9.24
2018-01-27T04:38:02.108Z,9.23
2018-01-27T04:40:29.569Z,9.36
2018-01-27T04:42:57.285Z,9.41
2018-01-27T04:45:24.746Z,9.33
2018-01-27T04:47:52.270Z,9.24
2018-01-27T04:50:19.813Z,9.22
2018-01-27T04:52:47.262Z,9.18
2018-01-27T04:55:14.797Z,9.07
2018-01-27T04:57:42.875Z,9.03
2018-01-27T05:00:10.324Z,9.14
2018-01-27T05:02:37.827Z,9.37
2018-01-27T05:05:05.241Z,9.13
2018-01-27T05:07:33.441Z,9.23
2018-01-27T05:10:01.081Z,8.95
2018-01-27T05:12:28.555Z,8.85
2018-01-27T05:14:56.017Z,8.82
2018-01-27T05:17:23.563Z,8.85
2018-01-27T05:19:51.058Z,8.59
2018-01-27T05:22:18.806Z,8.74
2018-01-27T05:24:46.291Z,8.63
2018-01-27T05:27:14.026Z,8.74
2018-01-27T05:29:41.686Z,8.57
2018-01-27T05:32:09.259Z,8.52
2018-01-27T05:34:36.740Z,8.39
2018-01-27T05:37:04.447Z,8.42
2018-01-27T05:39:32.472Z,8.31
2018-01-27T05:42:00.296Z,8.27
2018-01-27T05:44:28.060Z,8.43
2018-01-27T05:46:55.528Z,8.30
2018-01-27T05:49:24.188Z,8.40
2018-01-27T05:51:51.797Z,8.32
2018-01-27T05:54:19.558Z,8.43
2018-01-27T05:56:47.644Z,8.26
2018-01-27T05:59:15.202Z,8.30
2018-01-27T06:01:42.666Z,8.04
2018-01-27T06:04:10.142Z,8.07
2018-01-27T06:06:37.623Z,7.80
2018-01-27T06:09:05.096Z,7.87
2018-01-27T06:11:32.758Z,7.69
2018-01-27T06:14:00.177Z,7.68
2018-01-27T06:16:27.717Z,7.94
2018-01-27T06:18:55.187Z,8.10
2018-01-27T06:21:22.690Z,8.17
2018-01-27T06:23:50.408Z,8.02
2018-01-27T06:26:17.994Z,7.95
2018-01-27T06:28:45.441Z,7.88
2018-01-27T06:31:12.962Z,7.97
2018-01-27T06:33:40.458Z,7.80
2018-01-27T06:36:08.089Z,7.95
2018-01-27T06:38:35.558Z,7.94
2018-01-27T06:41:03.071Z,8.09
2018-01-27T06:43:30.734Z,7.98
2018-01-27T06:45:58.209Z,7.94
2018-01-27T06:48:25.671Z,7.68
2018-01-27T06:50:53.330Z,7.76
2018-01-27T06:53:20.820Z,7.78
2018-01-27T06:55:48.253Z,7.79
2018-01-27T06:58:15.808Z,7.73
2018-01-27T07:00:43.408Z,7.90
2018-01-27T07:03:11.150Z,7.70
2018-01-27T07:05:38.654Z,7.79
2018-01-27T07:08:06.117Z,7.79
2018-01-27T07:10:33.870Z,8.12
2018-01-27T07:13:01.356Z,8.24
2018-01-27T07:15:28.799Z,8.17
2018-01-27T07:17:56.329Z,8.03
2018-01-27T07:20:23.769Z,7.85
2018-01-27T07:22:51.334Z,7.77
2018-01-27T07:25:18.898Z,7.74
2018-01-27T07:27:46.333Z,7.70
2018-01-27T07:30:13.797Z,8.02
2018-01-27T07:32:41.325Z,8.06
2018-01-27T07:35:08.794Z,7.82
2018-01-27T07:37:37.164Z,7.74
2018-01-27T07:40:04.630Z,7.85
2018-01-27T07:42:32.987Z,7.94
2018-01-27T07:45:00.586Z,8.08
2018-01-27T07:47:28.327Z,7.94
2018-01-27T07:49:55.833Z,7.63
2018-01-27T07:52:23.346Z,7.78
2018-01-27T07:54:51.061Z,7.81
2018-01-27T07:57:18.511Z,7.79
2018-01-27T07:59:45.967Z,7.63
2018-01-27T08:02:13.541Z,7.74
2018-01-27T08:04:40.993Z,7.62
2018-01-27T08:07:08.494Z,7.82
2018-01-27T08:09:35.955Z,7.90
2018-01-27T08:12:03.475Z,8.09
2018-01-27T08:14:30.957Z,8.04
2018-01-27T08:16:58.406Z,8.05
2018-01-27T08:19:25.861Z,8.06
2018-01-27T08:21:53.313Z,8.16
2018-01-27T08:24:20.745Z,8.12
2018-01-27T08:26:48.194Z,7.92
2018-01-27T08:29:15.730Z,8.11
2018-01-27T08:31:43.261Z,8.12
2018-01-27T08:34:11.780Z,8.23
2018-01-27T08:36:39.250Z,8.32
2018-01-27T08:39:06.692Z,8.44
2018-01-27T08:41:34.155Z,8.60
2018-01-27T08:44:02.117Z,8.42
2018-01-27T08:46:29.610Z,8.53
2018-01-27T08:48:57.081Z,8.44
2018-01-27T08:51:24.534Z,8.46
2018-01-27T08:53:51.972Z,8.46
2018-01-27T08:56:19.433Z,8.62
2018-01-27T08:58:46.867Z,8.51
2018-01-27T09:01:15.282Z,8.44
2018-01-27T09:03:43.563Z,8.57
2018-01-27T09:06:12.026Z,8.62
2018-01-27T09:08:39.586Z,9.03
2018-01-27T09:11:07.057Z,8.48
2018-01-27T09:13:34.511Z,8.38
2018-01-27T09:16:01.955Z,9.22
2018-01-27T09:18:29.410Z,8.68
2018-01-27T09:20:56.842Z,8.61
2018-01-27T09:23:24.297Z,8.77
2018-01-27T09:25:51.773Z,8.69
2018-01-27T09:28:19.238Z,8.59
2018-01-27T09:30:46.795Z,8.85
2018-01-27T09:33:14.264Z,8.79
2018-01-27T09:35:41.704Z,8.71
2018-01-27T09:38:09.169Z,8.68
2018-01-27T09:40:36.609Z,8.64
2018-01-27T09:43:04.190Z,8.78
2018-01-27T09:45:31.631Z,8.72
2018-01-27T09:47:59.088Z,8.65
2018-01-27T09:50:26.527Z,8.72
2018-01-27T09:52:54.022Z,8.62
2018-01-27T09:55:21.601Z,8.46
2018-01-27T09:57:49.073Z,8.37
2018-01-27T10:00:16.617Z,8.38
2018-01-27T10:02:44.067Z,8.57
2018-01-27T10:05:11.517Z,8.77
2018-01-27T10:07:38.978Z,8.89
2018-01-27T10:10:06.843Z,8.85
2018-01-27T10:12:34.283Z,8.89
2018-01-27T10:15:01.769Z,8.86
2018-01-27T10:17:29.220Z,8.98
2018-01-27T10:19:58.981Z,8.82
2018-01-27T10:22:32.894Z,8.96
2018-01-27T10:25:00.871Z,8.77
2018-01-27T10:27:28.324Z,9.14
2018-01-27T10:29:55.789Z,9.19
2018-01-27T10:32:23.225Z,9.33
2018-01-27T10:34:50.668Z,9.09
2018-01-27T10:37:18.181Z,9.13
2018-01-27T10:39:45.698Z,9.19
2018-01-27T10:42:13.139Z,9.20
2018-01-27T10:44:40.607Z,9.21
2018-01-27T10:47:08.303Z,9.24
2018-01-27T10:49:35.783Z,9.06
2018-01-27T10:52:05.577Z,9.30
2018-01-27T10:54:33.123Z,9.41
2018-01-27T10:57:00.594Z,9.35
2018-01-27T10:59:28.167Z,9.32
2018-01-27T11:01:55.633Z,9.05
2018-01-27T11:04:23.912Z,9.12
2018-01-27T11:06:51.353Z,9.07
2018-01-27T11:09:18.796Z,9.10
2018-01-27T11:11:46.250Z,9.24
2018-01-27T11:14:13.713Z,9.24
2018-01-27T11:16:41.466Z,9.19
2018-01-27T11:19:09.349Z,9.24
2018-01-27T11:21:36.812Z,9.35
2018-01-27T11:24:05.378Z,9.50
2018-01-27T11:26:32.938Z,9.51
2018-01-27T11:29:00.386Z,9.63
2018-01-27T11:31:27.844Z,9.59
2018-01-27T11:33:55.283Z,9.60
2018-01-27T11:36:22.754Z,9.65
2018-01-27T11:38:50.191Z,9.65
2018-01-27T11:41:17.648Z,9.36
2018-01-27T11:43:45.087Z,9.38
2018-01-27T11:46:12.564Z,9.60
2018-01-27T11:48:40.130Z,9.79
2018-01-27T11:51:07.893Z,9.82
2018-01-27T11:53:35.378Z,9.94
2018-01-27T11:56:02.817Z,9.92
2018-01-27T11:58:30.291Z,9.91
2018-01-27T12:00:57.729Z,9.87
2018-01-27T12:03:25.207Z,9.92
2018-01-27T12:05:52.729Z,9.90
2018-01-27T12:08:20.196Z,9.75
2018-01-27T12:10:47.679Z,9.67
2018-01-27T12:13:15.130Z,9.66
2018-01-27T12:15:42.580Z,9.74
2018-01-27T12:18:10.142Z,9.69
2018-01-27T12:20:37.593Z,9.78
2018-01-27T12:23:05.050Z,9.64
2018-01-27T12:25:32.500Z,9.78
2018-01-27T12:27:59.955Z,9.71
2018-01-27T12:30:27.428Z,9.55
2018-01-27T12:32:54.887Z,9.75
2018-01-27T12:35:22.327Z,9.85
2018-01-27T12:37:49.771Z,9.90
2018-01-27T12:40:17.221Z,9.81
2018-01-27T12:42:44.666Z,9.68
2018-01-27T12:45:12.122Z,9.43
2018-01-27T12:47:39.576Z,9.38
2018-01-27T12:50:07.029Z,9.48
2018-01-27T12:52:34.617Z,9.28
2018-01-27T12:55:02.342Z,9.11
2018-01-27T12:57:30.974Z,9.27
2018-01-27T12:59:58.426Z,9.43
2018-01-27T13:02:25.925Z,9.47
2018-01-27T13:04:53.385Z,9.23
2018-01-27T13:07:20.844Z,9.37
2018-01-27T13:09:49.141Z,9.56
2018-01-27T13:12:16.588Z,9.37
2018-01-27T13:14:44.033Z,9.55
2018-01-27T13:17:11.505Z,9.67
2018-01-27T13:19:39.219Z,9.54
2018-01-27T13:22:06.694Z,9.14
2018-01-27T13:24:34.855Z,9.15
2018-01-27T13:27:02.390Z,9.09
2018-01-27T13:29:29.846Z,9.22
2018-01-27T13:31:57.358Z,9.26
2018-01-27T13:34:24.825Z,9.38
2018-01-27T13:36:52.652Z,9.21
2018-01-27T13:39:20.110Z,9.14
2018-01-27T13:41:48.157Z,9.13
2018-01-27T13:44:15.585Z,9.11
2018-01-27T13:46:43.106Z,9.02
2018-01-27T13:49:10.637Z,9.00
2018-01-27T13:51:38.099Z,9.05
2018-01-27T13:54:05.537Z,8.94
2018-01-27T13:56:32.970Z,9.10
2018-01-27T13:59:00.525Z,8.79
2018-01-27T14:01:28.196Z,8.87
2018-01-27T14:03:55.672Z,8.97
2018-01-27T14:06:23.236Z,8.98
2018-01-27T14:08:51.015Z,8.51
2018-01-27T14:11:18.482Z,8.78
2018-01-27T14:13:45.961Z,8.81
2018-01-27T14:16:13.399Z,8.34
2018-01-27T14:18:40.919Z,8.44
2018-01-27T14:21:08.362Z,8.42
2018-01-27T14:23:36.144Z,8.57
2018-01-27T14:26:03.637Z,8.94
2018-01-27T14:28:31.087Z,9.06
2018-01-27T14:30:58.544Z,8.57
2018-01-27T14:33:26.141Z,8.59
2018-01-27T14:35:53.590Z,8.57
2018-01-27T14:38:21.097Z,8.50
2018-01-27T14:40:48.553Z,8.31
2018-01-27T14:43:16.110Z,8.10
2018-01-27T14:45:43.658Z,8.28
2018-01-27T14:48:11.136Z,8.58
2018-01-27T14:50:38.642Z,8.46
2018-01-27T14:53:06.096Z,8.48
2018-01-27T14:55:33.594Z,8.76
2018-01-27T14:58:01.048Z,8.67
2018-01-27T15:00:28.505Z,8.82
2018-01-27T15:02:55.968Z,8.95
2018-01-27T15:05:23.422Z,8.15
2018-01-27T15:07:50.907Z,8.03
2018-01-27T15:10:18.362Z,8.24
2018-01-27T15:12:45.814Z,8.06
2018-01-27T15:15:13.261Z,7.88
2018-01-27T15:17:40.716Z,7.73
2018-01-27T15:20:08.181Z,8.09
2018-01-27T15:22:35.620Z,8.20
2018-01-27T15:25:03.087Z,8.40
2018-01-27T15:27:30.598Z,8.55
2018-01-27T15:29:58.057Z,8.44
2018-01-27T15:32:25.511Z,8.45
2018-01-27T15:34:53.023Z,8.57
2018-01-27T15:37:20.598Z,8.28
2018-01-27T15:39:48.120Z,7.92
2018-01-27T15:42:15.561Z,8.06
2018-01-27T15:44:43.378Z,8.22
2018-01-27T15:47:10.837Z,7.98
2018-01-27T15:49:38.284Z,7.85
2018-01-27T15:52:05.729Z,7.96
2018-01-27T15:54:33.231Z,7.88
2018-01-27T15:57:00.678Z,8.09
2018-01-27T15:59:28.117Z,8.33
2018-01-27T16:01:55.576Z,8.13
2018-01-27T16:04:23.016Z,8.04
2018-01-27T16:06:50.529Z,8.29
2018-01-27T16:09:18.036Z,7.93
2018-01-27T16:11:49.909Z,7.89
2018-01-27T16:14:17.394Z,7.42
2018-01-27T16:16:44.845Z,7.70
2018-01-27T16:19:12.338Z,7.85
2018-01-27T16:21:39.810Z,7.71
2018-01-27T16:24:07.261Z,7.54
2018-01-27T16:26:35.650Z,7.77
2018-01-27T16:29:03.085Z,7.99
2018-01-27T16:31:31.428Z,7.67
2018-01-27T16:33:58.890Z,7.58
2018-01-27T16:36:26.351Z,7.41
2018-01-27T16:38:53.797Z,7.22
2018-01-27T16:41:21.273Z,7.27
2018-01-27T16:43:48.749Z,7.34
2018-01-27T16:46:16.217Z,7.20
2018-01-27T16:48:43.697Z,7.28
2018-01-27T16:51:11.154Z,7.63
2018-01-27T16:53:38.630Z,7.34
2018-01-27T16:56:06.081Z,7.31
2018-01-27T16:58:35.125Z,7.58
2018-01-27T17:01:02.932Z,7.76
2018-01-27T17:03:30.397Z,7.46
2018-01-27T17:05:57.878Z,7.23
2018-01-27T17:08:25.356Z,7.31
2018-01-27T17:10:52.844Z,7.38
2018-01-27T17:13:20.302Z,7.43
2018-01-27T17:15:49.049Z,7.68
2018-01-27T17:18:16.506Z,7.39
2018-01-27T17:20:43.941Z,7.44
2018-01-27T17:23:11.393Z,7.68
2018-01-27T17:25:38.986Z,7.90
2018-01-27T17:28:06.450Z,7.71
2018-01-27T17:30:34.166Z,7.61
2018-01-27T17:33:01.613Z,7.52
2018-01-27T17:35:29.150Z,7.52
2018-01-27T17:37:56.606Z,7.63
2018-01-27T17:40:24.042Z,7.52
2018-01-27T17:42:53.487Z,7.54
2018-01-27T17:45:20.924Z,7.42
2018-01-27T17:47:48.395Z,7.53
2018-01-27T17:50:15.831Z,7.58
2018-01-27T17:52:43.269Z,7.44
2018-01-27T17:55:10.709Z,7.60
2018-01-27T17:57:38.167Z,7.59
2018-01-27T18:00:06.118Z,7.44
2018-01-27T18:02:33.581Z,7.69
2018-01-27T18:05:01.046Z,7.55
2018-01-27T18:07:28.494Z,7.63
2018-01-27T18:09:56.918Z,7.30
2018-01-27T18:12:24.346Z,7.48
2018-01-27T18:14:51.813Z,7.38
2018-01-27T18:17:19.248Z,7.19
2018-01-27T18:19:46.758Z,7.40
2018-01-27T18:22:14.186Z,7.18
2018-01-27T18:24:41.669Z,7.23
2018-01-27T18:27:09.126Z,7.03
2018-01-27T18:29:36.743Z,6.71
2018-01-27T18:32:04.304Z,6.63
2018-01-27T18:34:31.788Z,6.71
2018-01-27T18:36:59.785Z,6.98
2018-01-27T18:39:27.355Z,7.26
2018-01-27T18:41:56.496Z,7.17
2018-01-27T18:44:23.950Z,7.15
2018-01-27T18:46:51.585Z,6.90
2018-01-27T18:49:19.057Z,7.32
2018-01-27T18:51:46.588Z,7.34
2018-01-27T18:54:14.062Z,7.49
2018-01-27T18:56:41.514Z,7.57
2018-01-27T18:59:08.977Z,7.39
2018-01-27T19:01:46.337Z,7.20
2018-01-27T19:04:13.788Z,7.10
2018-01-27T19:06:42.339Z,6.92
2018-01-27T19:09:09.844Z,7.03
2018-01-27T19:11:38.385Z,7.10
2018-01-27T19:14:08.060Z,7.18
2018-01-27T19:16:36.530Z,7.03
2018-01-27T19:19:04.527Z,6.96
2018-01-27T19:21:34.758Z,7.09
2018-01-27T19:24:05.877Z,7.40
2018-01-27T19:26:33.500Z,7.45
2018-01-27T19:29:00.941Z,7.44
2018-01-27T19:31:28.392Z,7.27
2018-01-27T19:33:55.944Z,7.27
2018-01-27T19:36:23.434Z,7.10
2018-01-27T19:38:51.850Z,7.07
2018-01-27T19:41:19.318Z,7.48
2018-01-27T19:43:46.849Z,7.35
2018-01-27T19:46:14.334Z,7.36
2018-01-27T19:48:41.816Z,7.24
2018-01-27T19:51:09.505Z,7.03
2018-01-27T19:53:38.858Z,7.05
2018-01-27T19:56:07.365Z,7.22
2018-01-27T19:58:35.380Z,7.25
2018-01-27T20:01:03.256Z,7.04
2018-01-27T20:03:30.803Z,7.16
2018-01-27T20:05:58.236Z,7.18
2018-01-27T20:08:25.888Z,7.44
2018-01-27T20:10:53.680Z,7.25
2018-01-27T20:13:21.271Z,7.23
2018-01-27T20:15:49.006Z,7.26
2018-01-27T20:18:16.846Z,7.40
2018-01-27T20:20:44.309Z,7.33
2018-01-27T20:23:12.773Z,7.48
2018-01-27T20:25:40.232Z,7.39
2018-01-27T20:28:07.741Z,7.58
2018-01-27T20:30:35.623Z,7.46
2018-01-27T20:33:03.129Z,7.31
2018-01-27T20:35:33.282Z,7.53
2018-01-27T20:38:00.730Z,7.32
2018-01-27T20:40:28.180Z,7.26
2018-01-27T20:42:55.664Z,7.36
2018-01-27T20:45:23.214Z,7.38
2018-01-27T20:47:50.799Z,7.33
2018-01-27T20:50:18.302Z,7.45
2018-01-27T20:52:45.772Z,7.45
2018-01-27T20:55:13.276Z,7.47
2018-01-27T20:57:40.715Z,7.30
2018-01-27T21:00:08.212Z,7.26
2018-01-27T21:02:35.690Z,7.34
2018-01-27T21:05:03.151Z,7.35
2018-01-27T21:07:30.586Z,7.20
2018-01-27T21:09:58.270Z,7.16
2018-01-27T21:12:25.696Z,7.28
2018-01-27T21:14:55.197Z,7.14
2018-01-27T21:17:22.677Z,7.30
2018-01-27T21:19:50.135Z,7.21
2018-01-27T21:22:17.593Z,7.20
2018-01-27T21:24:45.034Z,7.34
2018-01-27T21:27:12.484Z,7.39
2018-01-27T21:29:39.921Z,7.61
2018-01-27T21:32:07.365Z,7.29
2018-01-27T21:34:34.801Z,7.34
2018-01-27T21:37:02.267Z,7.46
2018-01-27T21:39:29.697Z,7.47
2018-01-27T21:41:57.147Z,7.41
2018-01-27T21:44:24.623Z,7.39
2018-01-27T21:46:52.079Z,7.37
2018-01-27T21:49:19.519Z,7.42
2018-01-27T21:51:47.010Z,7.54
2018-01-27T21:54:14.438Z,7.45
2018-01-27T21:56:41.904Z,7.37
2018-01-27T21:59:09.367Z,7.47
2018-01-27T22:01:37.354Z,7.43
2018-01-27T22:04:04.981Z,7.35
2018-01-27T22:06:32.424Z,7.39
2018-01-27T22:08:59.885Z,7.53
2018-01-27T22:11:27.321Z,7.30
2018-01-27T22:13:54.785Z,7.51
2018-01-27T22:16:22.238Z,7.67
2018-01-27T22:18:49.698Z,7.42
2018-01-27T22:21:17.145Z,7.38
2018-01-27T22:23:44.653Z,7.49
2018-01-27T22:26:12.099Z,7.28
2018-01-27T22:28:39.743Z,7.35
2018-01-27T22:31:07.488Z,7.50
2018-01-27T22:33:34.944Z,7.51
2018-01-27T22:36:02.381Z,7.38
2018-01-27T22:38:29.844Z,7.42
2018-01-27T22:40:57.316Z,7.39
2018-01-27T22:43:24.764Z,7.35
2018-01-27T22:45:52.226Z,7.38
2018-01-27T22:48:19.677Z,7.27
2018-01-27T22:50:47.121Z,7.27
2018-01-27T22:53:14.553Z,7.32
2018-01-27T22:55:42.011Z,7.34
2018-01-27T22:58:09.530Z,7.38
2018-01-27T23:00:37.366Z,7.26
2018-01-27T23:03:04.826Z,7.24
2018-01-27T23:05:32.322Z,7.20
2018-01-27T23:07:59.850Z,7.31
2018-01-27T23:10:27.336Z,7.28
2018-01-27T23:12:54.766Z,7.20
2018-01-27T23:15:22.250Z,7.22
2018-01-27T23:17:49.815Z,7.27
2018-01-27T23:20:17.255Z,7.32
2018-01-27T23:22:44.687Z,7.13
2018-01-27T23:25:12.113Z,7.24
2018-01-27T23:27:39.606Z,7.22
2018-01-27T23:30:07.974Z,7.38
2018-01-27T23:32:36.391Z,7.19
2018-01-27T23:35:03.864Z,7.08
2018-01-27T23:37:31.308Z,7.16
2018-01-27T23:39:58.811Z,7.14
2018-01-27T23:42:26.287Z,7.20
2018-01-27T23:44:53.766Z,7.19
2018-01-27T23:47:21.388Z,7.17
2018-01-27T23:49:48.863Z,7.27
2018-01-27T23:52:16.390Z,7.14
2018-01-27T23:54:43.896Z,7.15
2018-01-27T23:57:16.419Z,7.16
2018-01-27T23:59:43.921Z,7.23
